Latest Observation

39 Stations

15 Minute Data | America/Los_Angeles
as of 10/28/21 3:18 AM PDT
Station Date Time Temp (°F) RH (%) Dew Pt (°F) Wind Dir (°) Wind Spd (mph) Wind Gust (mph) Solar Rad (W/m2) Latest Rain (In) Daily Rain (In) Daily Max Temp (°F) Daily Min Temp (°F) Daily Max Wind (mph) Daily ETo (in) Daily Leaf Wet Hrs (hrs)
Colony 1 10/28/21 0315 50.8   2.0 98   3 50.3   1.2 W | 269 0.8   0.7 2.1   1.0 0   0 0.00 0.00 53.4   1.4 50.4   2.1 3.1   1.1 0.000   0.000 -
Colony 2 10/28/21 0315 52.0   0.4 96   3 50.9   1.2 W | 269 1.4   1.1 2.1   1.1 0   0 0.00 0.00 54.6   0.1 51.5   0.1 3.6   1.0 0.000   0.000 -
5 Wells 10/28/21 0315 51.8   0.5 100   0 51.8   0.5 E | 96 2.7   2.7 5.0   4.2 0   0 0.00 0.00 55.4   1.9 51.6   0.4 5.0   1.8 0.000   0.000 -
Simmerhorn 10/28/21 0315 52.0   0.6 100   0 52.0   0.6 - - - - - - 54.2   1.2 51.4   0.7 - - -
Galt-East 10/28/21 0315 53.1   0.6 98   4 52.5   1.8 ESE | 108 0.8   0.2 2.0   0.4 0   0 0.00 0.00 55.1   0.7 52.1   0.1 4.1   1.6 0.000   0.000 -
Borden Hills 10/28/21 0315 53.6   0.3 99   4 53.4   1.3 NE | 55 2.1   0.2 2.8   0.1 0   0 0.00 0.00 56.4   1.4 52.5   0.1 3.8   0.5 0.000   0.000 -
Sierra Loma-L27 10/28/21 0315 52.9   0.6 100   2 52.9   1.2 N | 5 0.3   0.1 1.1   0.4 - 0.00 0.00 54.9   0.0 52.0   0.1 4.1   1.2 - -
Lockeford 10/28/21 0315 50.9   0.2 96   2 49.6   0.2 E | 92 0.1   0.2 2.1   0.0 1   0 0.00 0.00 54.8   2.2 50.3   0.2 4.1   2.0 0.000   0.000 2.2   0.0
Lone Oak-L28 10/28/21 0315 47.2   2.3 100   0 47.2   2.3 SE | 127 0.8   0.7 2.6   1.4 - 0.00 0.00 49.1   1.9 46.7   0.2 3.9   2.3 - -
Kost Rd 10/28/21 0315 54.1   0.6 100   1 54.0   0.9 WNW | 282 0.7   0.6 1.3   0.0 0   0 0.00 0.00 55.2   0.8 53.5   0.5 4.6   2.2 0.000   0.000 -
Thornton 10/28/21 0315 51.2   0.6 89   0 48.2   0.5 W | 278 0.5   0.5 2.7   1.0 0   0 0.00 0.00 52.2   1.4 50.7   0.3 2.7   1.0 0.000   0.000 2.2   0.0
Lodi (LangeTwins) 10/28/21 0315 53.8   1.2 98   1 53.4   1.4 N | 0 0.0   0.0 0.0   0.0 0   0 0.00 0.00 56.1   2.2 53.2   0.9 3.1   3.1 0.000   0.000 2.2   2.2
Gilbeau Ranch 10/28/21 0315 52.4   0.3 98   4 51.8   0.9 ENE | 73 1.1   0.9 3.3   2.5 0   0 0.00 0.00 56.4   2.4 52.2   0.4 4.8   2.6 0.000   0.000 -
Galt West 10/28/21 0315 51.6   0.3 96   1 50.5   0.0 WSW | 258 0.7   0.7 1.4   0.0 0   0 0.00 0.00 52.4   1.2 50.7   0.7 2.4   0.1 0.000   0.000 -
Valley Oak 10/28/21 0315 53.5   1.5 100   1 53.4   1.7 WNW | 289 1.1   0.9 2.2   0.4 0   0 0.00 0.00 54.9   1.1 51.1   0.0 3.4   0.7 0.000   0.000 -
Guard Rd (Lodi WSW) 10/28/21 0315 51.6   0.2 97   1 50.8   0.1 N | 353 0.0   0.0 0.3   0.0 0   0 0.00 0.00 54.9   0.9 51.1   0.2 2.2   0.1 0.000   0.000 2.2   0.0
Linden 10/28/21 0315 51.3   1.1 99   1 51.1   1.2 ESE | 123 0.1   0.2 1.4   0.1 - 0.00 0.00 53.5   2.8 50.0   1.7 3.3   1.8 - 2.2   0.0
DeVries Road-North 10/28/21 0315 52.1   1.0 98   1 51.7   1.2 NNW | 328 1.1   0.6 3.1   1.4 0   0 0.00 0.00 55.5   2.9 50.5   0.1 4.1   1.9 0.000   0.000 -
Acampo 10/28/21 0315 50.0   0.8 93   0 48.2   0.8 N | 0 0.0   0.0 0.0   0.0 0   0 - 0.00 54.4   2.1 49.6   0.4 3.1   2.0 0.000   0.000 2.2   0.0
Acampo (Woodbridge) 10/28/21 0315 53.5   0.1 97   4 52.7   1.0 S | 185 0.9   0.4 1.3   0.6 0   0 0.00 0.00 55.9   0.2 52.4   0.9 3.5   0.9 0.000   0.000 -
Lodi West 10/28/21 0315 54.4   0.6 94   5 52.9   2.0 NW | 326 0.7   0.7 2.2   2.2 0   0 0.00 0.00 57.8   2.4 54.2   0.8 4.4   2.2 0.000   0.000 0.0   0.0
Teresi-Alpine Rd (East Lodi) 10/28/21 0315 51.2   1.2 96   3 50.2   0.4 W | 270 2.0   1.7 2.6   1.0 0   0 0.00 0.00 54.2   0.2 50.9   1.1 3.0   0.9 - -
Victor - N (Katusha) 10/28/21 0315 51.8   0.3 98   1 51.3   0.5 N | 0 0.0   0.0 0.0   0.0 - 0.00 0.00 56.1   3.5 51.3   0.4 - - -
Live Oak 10/28/21 0315 50.9   0.9 99   1 50.7   1.1 N | 0 0.0   0.6 0.0   1.4 0   0 0.00 0.00 54.8   2.9 50.3   0.4 3.2   0.2 0.000   0.000 -
Sheldon 10/28/21 0315 50.9   0.2 95   0 49.5   0.3 WSW | 238 0.4   0.4 2.1   2.1 0   0 0.00 0.00 53.2   0.4 50.7   0.1 3.4   1.0 0.000   0.000 2.2   0.0
Sloughhouse 10/28/21 0315 48.8   0.2 95   2 47.5   0.3 E | 88 0.8   0.8 2.7   2.7 0   0 0.00 0.00 52.2   0.6 48.1   0.3 3.4   1.0 0.000   0.000 -
Utter - Wilson 10/28/21 0315 51.1   3.0 99   4 50.9   1.8 WNW | 288 1.5   0.3 2.5   0.4 0   0 0.00 0.00 56.8   1.5 50.6   2.7 2.9   1.3 0.000   0.000 -
Clarksburg 10/28/21 0315 54.1   0.6 91   3 51.5   1.5 WNW | 282 0.6   0.0 2.3   0.8 0   0 0.00 0.00 58.0   2.0 53.9   0.7 3.2   1.2 0.000   0.000 -
Clarksburg-3A2 10/28/21 0315 52.8   1.2 99   5 52.5   0.1 SSE | 149 1.5   0.8 2.9   0.2 0   0 0.00 0.00 57.6   1.6 52.1   1.9 4.7   0.3 0.000   0.000 -
Gorter - Wilson 10/28/21 0315 50.6   1.1 99   0 50.2   0.9 SE | 127 0.2   0.1 0.9   0.7 0   0 0.00 0.00 56.7   3.3 50.0   0.5 3.3   0.4 0.000   0.000 -
Hood 10/28/21 0315 55.4   2.9 98   2 54.9   2.4 NW | 314 0.9   0.6 2.0   0.1 0   0 0.00 0.00 57.7   3.4 54.0   1.8 3.5   0.7 0.000   0.000 -
Courtland-C3 10/28/21 0315 50.8   2.0 99   2 50.5   1.4 NW | 315 1.7   0.8 3.1   1.2 - 0.00 0.00 53.9   1.4 50.6   1.2 3.3   0.9 - -
Pacific Fruit 10/28/21 0315 51.5   1.1 96   2 50.4   0.5 NW | 323 0.2   1.0 1.8   0.4 0   0 0.00 0.00 53.1   2.5 50.9   1.3 3.6   0.4 0.000   0.000 -
Ryer Island South 10/28/21 0300 48.7   5.4 97   4 47.8   4.4 W | 277 1.0   0.8 1.9   2.1 0   0 0.00 0.00 51.0   5.5 48.3   5.4 1.9   3.8 0.000   0.000 2.0   2.0
Farmington (Mobley100) 10/28/21 0315 51.6   0.9 96   0 50.6   0.8 N | 0 0.0   0.0 0.0   0.0 - - - 53.9   2.7 51.2   1.9 1.7   0.2 - -
Collegeville 10/28/21 0315 54.0   3.9 99   1 53.7   3.8 N | 354 0.1   0.0 0.9   0.1 0   0 0.00 0.00 55.9   5.3 52.5   3.3 3.1   1.2 0.000   0.000 -
Oakdale North (28 Mile Rd) 10/28/21 0315 51.4   2.2 97   0 50.7   2.4 ESE | 119 0.2   0.1 1.8   0.8 - - - 53.4   2.8 51.1   2.0 2.4   1.4 - -
Escalon 10/28/21 0315 51.8   2.6 97   0 51.1   2.7 N | 0 0.0   0.0 0.0   0.0 - 0.00 0.00 57.1   4.3 51.7   2.8 2.8   0.1 - 2.2   0.0
Claussen 10/28/21 0315 55.0   2.8 96   1 54.0   2.5 W | 269 2.4   0.3 3.2   0.9 0   0 0.00 0.00 58.5   3.6 54.4   2.9 4.4   0.3 0.000   0.000 -
Max     55.4 100 54.9 - 2.7 5.0 1 0.00 0.00 58.5 54.4 5.0 0.000 2.2
Avg     52.0 97 51.2 - 0.8 1.8 0 0.00 - - - - - -
Min     47.2 89 47.2 - 0.0 0.0 0 0.00 0.00 49.1 46.7 1.7 0.000 0.0